Accueil
METAR-TAF:

METAR-TAF

Aéroports :

Rodez, Marcillac,

Aéroport de Rodez-Aveyron

latitude: France, longitude: 44-24N, altitude: 002-29E m

Observation

Le bulletin a été fait il y a 36 minutes, à 05:00 UTC
Vent 5 kt de sud-est
Température 8°C
Humidité 66%
Pression 1016 hPa
Visibilité 10 km ou plus
pas de nuages en-dessous de 1500 mètres et pas de cumulonimbus.

METAR: LFCR 240500Z AUTO 14005KT CAVOK 08/02 Q1016 NOSIG

Heure: 05:36 (05:36 UTC)

Prévision

Le bulletin a été fait il y a 6 heures et 36 minutes, à 23:00 UTC
Prévision valable du 24 à 00 UTC au 24 à 24 UTC
Vent 5 kt de est/sud-est
Visibilité 10 km ou plus
pas de nuages en-dessous de 1500 mètres et pas de cumulonimbus.
Evoluant progressivement
du 24 à 08 UTC au 24 à 10 UTC
Vent 6 kt de sud-ouest
Evoluant progressivement
du 24 à 17 UTC au 24 à 19 UTC
Vent 10 kt de sud-est

TAF: LFCR 232300Z 2400/2424 12005KT CAVOK BECMG 2408/2410 23006KT BECMG 2417/2419 14010KT

Observations et prévisions météorologiques de plus de 4000 aéroports (messages METAR et TAF).

Les stations disponibles sont représentées par des disques jaunes et rouges sur la carte.

Passer la souris dessus pour voir le nom de la station.

Cliquer dessus pour voir les observations et prévisions météorologiques.

Pour changer de carte: cliquez sur les boutons verts avec une croix noire pour zoomer, sur le bouton vert avec un tiret pour effectuer un zoom arrière, ou sur les flèches vertes pour les cartes adjacentes.


METAR-TAF: